Time;durP1;ratioP1;P1;durP2;ratioP2;P2;SDS_P1;SDS_P2;PMS_P1;PMS_P2;Temp;Humidity;BMP_temperature;BMP_pressure;BME280_temperature;BME280_humidity;BME280_pressure;Samples;Min_cycle;Max_cycle;Signal;HPM_P1;HPM_P2
2022/08/02 00:02:11;;;;;;;3.67;1.77;;;;;;;;;;5094312;28;20440;-70
2022/08/02 00:04:38;;;;;;;2.30;1.20;;;;;;;;;;5093897;28;20536;-70
2022/08/02 00:07:07;;;;;;;1.83;1.60;;;;;;;;;;5094243;28;20441;-70
2022/08/02 00:09:34;;;;;;;2.70;1.73;;;;;;;;;;5093605;28;20472;-72
2022/08/02 00:12:01;;;;;;;1.90;1.57;;;;;;;;;;5094065;28;20510;-70
2022/08/02 00:14:28;;;;;;;3.00;2.13;;;;;;;;;;5094116;28;20478;-70
2022/08/02 00:16:55;;;;;;;2.70;1.33;;;;;;;;;;5093668;28;20830;-69
2022/08/02 00:19:22;;;;;;;1.60;1.37;;;;;;;;;;5093570;28;20440;-72
2022/08/02 00:21:50;;;;;;;1.83;1.50;;;;;;;;;;5092600;28;20445;-73
2022/08/02 00:24:18;;;;;;;2.63;2.33;;;;;;;;;;5093858;28;20433;-72
2022/08/02 00:26:45;;;;;;;2.20;1.50;;;;;;;;;;5093385;28;20433;-72
2022/08/02 00:29:12;;;;;;;1.97;1.63;;;;;;;;;;5093193;28;20467;-72
2022/08/02 00:31:39;;;;;;;1.77;1.50;;;;;;;;;;5093385;28;20977;-72
2022/08/02 00:34:07;;;;;;;2.93;1.73;;;;;;;;;;5093495;28;20476;-71
2022/08/02 00:36:34;;;;;;;2.37;1.70;;;;;;;;;;5093522;28;20874;-72
2022/08/02 00:39:01;;;;;;;1.63;1.53;;;;;;;;;;5094756;28;20445;-72
2022/08/02 00:41:30;;;;;;;5.13;2.47;;;;;;;;;;5099964;28;20476;-72
2022/08/02 00:43:57;;;;;;;2.60;1.90;;;;;;;;;;5102967;28;20445;-72
2022/08/02 00:46:24;;;;;;;2.17;1.80;;;;;;;;;;5107005;28;20500;-72
2022/08/02 00:48:54;;;;;;;1.77;1.50;;;;;;;;;;5107329;28;20504;-72
2022/08/02 00:51:22;;;;;;;3.43;2.17;;;;;;;;;;5108270;28;20476;-72
2022/08/02 00:53:49;;;;;;;2.47;1.70;;;;;;;;;;5107765;28;20468;-73
2022/08/02 00:56:16;;;;;;;6.23;2.03;;;;;;;;;;5101566;28;20516;-72
2022/08/02 00:58:44;;;;;;;3.63;2.40;;;;;;;;;;5093350;28;20924;-72
2022/08/02 01:01:11;;;;;;;4.27;2.10;;;;;;;;;;5093645;28;20471;-72
2022/08/02 01:03:39;;;;;;;1.97;1.67;;;;;;;;;;5092998;28;20440;-72
2022/08/02 01:06:06;;;;;;;2.40;2.00;;;;;;;;;;5093137;28;20441;-72
2022/08/02 01:08:33;;;;;;;2.20;1.90;;;;;;;;;;5092754;28;20436;-70
2022/08/02 01:11:00;;;;;;;2.00;1.60;;;;;;;;;;5093000;28;20468;-70
2022/08/02 01:13:28;;;;;;;2.70;1.80;;;;;;;;;;5093303;28;20531;-69
2022/08/02 01:16:01;;;;;;;1.93;1.73;;;;;;;;;;5092596;28;20441;-72
2022/08/02 01:18:29;;;;;;;2.23;1.90;;;;;;;;;;5092539;28;20825;-72
2022/08/02 01:21:06;;;;;;;2.33;1.57;;;;;;;;;;5092199;28;20963;-72
2022/08/02 01:23:40;;;;;;;1.80;1.40;;;;;;;;;;5093103;28;20428;-72
2022/08/02 01:26:19;;;;;;;1.77;1.67;;;;;;;;;;5093008;28;20467;-72
2022/08/02 01:28:50;;;;;;;2.20;1.80;;;;;;;;;;5091897;28;20776;-70
2022/08/02 01:31:20;;;;;;;2.43;1.90;;;;;;;;;;5092717;28;20575;-70
2022/08/02 01:33:50;;;;;;;1.90;1.70;;;;;;;;;;5092128;28;20441;-70
2022/08/02 01:36:19;;;;;;;1.90;1.50;;;;;;;;;;5088202;28;20528;-70
2022/08/02 01:38:47;;;;;;;2.30;1.97;;;;;;;;;;5091451;28;20504;-70
2022/08/02 01:41:17;;;;;;;2.17;1.60;;;;;;;;;;5092653;28;20449;-70
2022/08/02 01:43:45;;;;;;;2.50;1.77;;;;;;;;;;5091935;28;20445;-70
2022/08/02 01:46:14;;;;;;;1.87;1.50;;;;;;;;;;5092452;28;20441;-70
2022/08/02 01:48:42;;;;;;;1.70;1.30;;;;;;;;;;5091497;28;20445;-71
2022/08/02 01:51:12;;;;;;;2.40;1.37;;;;;;;;;;5092360;28;20488;-70
2022/08/02 01:53:40;;;;;;;1.93;1.50;;;;;;;;;;5091369;28;20527;-70
2022/08/02 01:56:08;;;;;;;2.00;1.80;;;;;;;;;;5092102;28;20445;-70
2022/08/02 01:58:37;;;;;;;2.13;1.43;;;;;;;;;;5091751;28;20908;-70
2022/08/02 02:01:06;;;;;;;2.20;1.53;;;;;;;;;;5092406;28;20429;-71
2022/08/02 02:03:36;;;;;;;1.80;1.40;;;;;;;;;;5091801;28;20458;-70
2022/08/02 02:06:04;;;;;;;1.60;1.30;;;;;;;;;;5092082;28;20437;-70
2022/08/02 02:08:32;;;;;;;2.40;1.80;;;;;;;;;;5091922;28;20436;-71
2022/08/02 02:11:01;;;;;;;2.00;1.73;;;;;;;;;;5091478;28;20487;-71
2022/08/02 02:13:29;;;;;;;2.30;1.50;;;;;;;;;;5092161;28;20506;-71
2022/08/02 02:15:56;;;;;;;3.20;1.87;;;;;;;;;;5091158;28;20547;-70
2022/08/02 02:18:24;;;;;;;2.10;1.70;;;;;;;;;;5091167;28;20444;-71
2022/08/02 02:20:53;;;;;;;2.30;1.70;;;;;;;;;;5091239;28;20447;-71
2022/08/02 02:23:20;;;;;;;1.53;1.27;;;;;;;;;;5078730;28;20448;-71
2022/08/02 02:25:48;;;;;;;1.63;1.40;;;;;;;;;;5090902;28;20924;-71
2022/08/02 02:28:17;;;;;;;1.67;1.30;;;;;;;;;;5091419;28;20447;-72
2022/08/02 02:30:48;;;;;;;1.63;1.27;;;;;;;;;;5090945;28;20476;-70
2022/08/02 02:33:17;;;;;;;1.67;1.30;;;;;;;;;;5091932;28;20453;-70
2022/08/02 02:35:47;;;;;;;1.60;1.30;;;;;;;;;;5090562;28;20500;-70
2022/08/02 02:38:16;;;;;;;1.80;1.50;;;;;;;;;;5090852;28;20523;-71
2022/08/02 02:40:45;;;;;;;1.50;1.40;;;;;;;;;;5090863;28;20531;-70
2022/08/02 02:43:12;;;;;;;1.90;1.30;;;;;;;;;;5091611;28;20499;-71
2022/08/02 02:45:41;;;;;;;1.87;1.70;;;;;;;;;;5090555;28;20800;-70
2022/08/02 02:48:08;;;;;;;1.30;1.20;;;;;;;;;;5090909;28;20441;-70
2022/08/02 02:50:36;;;;;;;1.17;0.97;;;;;;;;;;5091304;28;20476;-71
2022/08/02 02:53:04;;;;;;;1.40;1.30;;;;;;;;;;5091469;28;20441;-71
2022/08/02 02:55:32;;;;;;;2.10;1.33;;;;;;;;;;5091752;28;20551;-71
2022/08/02 02:58:00;;;;;;;1.87;1.23;;;;;;;;;;5090263;28;20447;-71
2022/08/02 03:03:09;;;;;;;2.57;1.20;;;;;;;;;;5090692;28;20915;-70
2022/08/02 03:05:36;;;;;;;2.53;1.37;;;;;;;;;;5090890;28;20776;-68
2022/08/02 03:08:03;;;;;;;2.80;1.50;;;;;;;;;;5090765;28;20452;-70
2022/08/02 03:10:32;;;;;;;2.00;1.50;;;;;;;;;;5091010;28;20476;-70
2022/08/02 03:12:59;;;;;;;1.87;1.20;;;;;;;;;;5090703;28;20444;-70
2022/08/02 03:15:27;;;;;;;2.37;1.60;;;;;;;;;;5091047;28;20439;-70
2022/08/02 03:17:54;;;;;;;1.60;1.50;;;;;;;;;;5090345;28;20468;-70
2022/08/02 03:20:22;;;;;;;2.20;1.40;;;;;;;;;;5091537;28;20440;-71
2022/08/02 03:22:49;;;;;;;1.90;1.60;;;;;;;;;;5091112;28;20443;-72
2022/08/02 03:25:17;;;;;;;2.30;1.67;;;;;;;;;;5103749;28;20437;-71
2022/08/02 03:27:46;;;;;;;1.83;1.17;;;;;;;;;;5103671;28;20524;-72
2022/08/02 03:30:14;;;;;;;3.10;1.73;;;;;;;;;;5100892;28;20846;-72
2022/08/02 03:32:43;;;;;;;2.40;1.70;;;;;;;;;;5090845;28;20448;-70
2022/08/02 03:35:12;;;;;;;1.87;1.50;;;;;;;;;;5090746;28;20464;-70
2022/08/02 03:37:39;;;;;;;2.10;1.53;;;;;;;;;;5090056;28;20516;-70
2022/08/02 03:40:08;;;;;;;1.70;1.60;;;;;;;;;;5090841;28;20451;-70
2022/08/02 03:42:35;;;;;;;2.13;1.20;;;;;;;;;;5091269;28;20441;-70
2022/08/02 03:45:04;;;;;;;1.60;1.10;;;;;;;;;;5091221;28;20445;-70
2022/08/02 03:47:32;;;;;;;1.77;1.20;;;;;;;;;;5090432;28;20510;-70
2022/08/02 03:49:59;;;;;;;2.33;1.50;;;;;;;;;;5090304;28;20440;-71
2022/08/02 03:52:27;;;;;;;2.03;1.30;;;;;;;;;;5090820;28;20490;-71
2022/08/02 03:54:54;;;;;;;2.23;1.43;;;;;;;;;;5090080;28;20532;-70
2022/08/02 03:57:21;;;;;;;1.43;1.33;;;;;;;;;;5093105;28;20451;-71
2022/08/02 03:59:49;;;;;;;1.47;1.30;;;;;;;;;;5093816;28;20441;-70
2022/08/02 04:02:17;;;;;;;3.60;1.90;;;;;;;;;;5094340;28;20445;-71
2022/08/02 04:04:44;;;;;;;2.70;1.87;;;;;;;;;;5094001;28;20448;-71
2022/08/02 04:07:11;;;;;;;1.40;1.10;;;;;;;;;;5094317;28;20440;-71
2022/08/02 04:09:38;;;;;;;1.80;1.40;;;;;;;;;;5093338;28;20519;-70
2022/08/02 04:12:06;;;;;;;2.27;1.40;;;;;;;;;;5094419;28;20814;-70
2022/08/02 04:14:33;;;;;;;1.70;1.50;;;;;;;;;;5094294;28;20445;-70
2022/08/02 04:17:02;;;;;;;1.80;1.33;;;;;;;;;;5093689;28;20823;-70
2022/08/02 04:19:33;;;;;;;2.37;1.40;;;;;;;;;;5093420;28;20443;-71
2022/08/02 04:22:01;;;;;;;3.63;1.13;;;;;;;;;;5093106;28;20920;-70
2022/08/02 04:24:30;;;;;;;1.87;1.40;;;;;;;;;;5093980;28;20444;-70
2022/08/02 04:26:59;;;;;;;2.70;1.97;;;;;;;;;;5093455;28;20984;-71
2022/08/02 04:29:26;;;;;;;2.10;1.37;;;;;;;;;;5093450;28;20745;-70
2022/08/02 04:31:54;;;;;;;2.37;1.77;;;;;;;;;;5093178;28;20499;-71
2022/08/02 04:34:22;;;;;;;2.47;2.07;;;;;;;;;;5093431;28;20479;-70
2022/08/02 04:36:50;;;;;;;1.83;1.60;;;;;;;;;;5092876;28;20904;-71
2022/08/02 04:39:17;;;;;;;2.00;1.23;;;;;;;;;;5093167;28;20769;-71
2022/08/02 04:41:46;;;;;;;2.07;1.57;;;;;;;;;;5093141;28;20547;-70
2022/08/02 04:44:14;;;;;;;1.87;1.60;;;;;;;;;;5093192;28;20532;-71
2022/08/02 04:46:41;;;;;;;2.20;1.70;;;;;;;;;;5093143;28;20445;-71
2022/08/02 04:49:08;;;;;;;1.73;1.43;;;;;;;;;;5093140;28;20860;-72
2022/08/02 04:51:36;;;;;;;2.83;1.90;;;;;;;;;;5096495;28;20506;-68
2022/08/02 04:54:05;;;;;;;1.60;1.13;;;;;;;;;;5100892;28;20999;-71
2022/08/02 04:56:32;;;;;;;3.20;2.03;;;;;;;;;;5103025;28;20508;-70
2022/08/02 04:59:00;;;;;;;1.97;1.40;;;;;;;;;;5106063;28;20464;-70
2022/08/02 05:01:27;;;;;;;1.73;1.43;;;;;;;;;;5108954;28;20515;-70
2022/08/02 05:03:54;;;;;;;4.70;1.40;;;;;;;;;;5109614;28;20967;-70
2022/08/02 05:06:22;;;;;;;1.20;1.10;;;;;;;;;;5109899;28;20500;-71
2022/08/02 05:08:49;;;;;;;2.80;2.00;;;;;;;;;;5093086;28;20441;-71
2022/08/02 05:11:18;;;;;;;1.60;1.50;;;;;;;;;;5094182;28;20478;-71
2022/08/02 05:13:45;;;;;;;2.40;1.90;;;;;;;;;;5093404;28;20441;-71
2022/08/02 05:16:12;;;;;;;2.00;1.30;;;;;;;;;;5093056;28;20432;-71
2022/08/02 05:18:39;;;;;;;2.53;1.43;;;;;;;;;;5092439;28;20861;-71
2022/08/02 05:21:06;;;;;;;2.13;1.40;;;;;;;;;;5093049;28;20441;-70
2022/08/02 05:23:33;;;;;;;2.10;1.23;;;;;;;;;;5092443;28;20437;-71
2022/08/02 05:26:00;;;;;;;2.60;2.00;;;;;;;;;;5091760;28;20444;-71
2022/08/02 05:28:29;;;;;;;2.37;1.50;;;;;;;;;;5092700;28;20447;-71
2022/08/02 05:30:56;;;;;;;2.47;1.90;;;;;;;;;;5091872;28;20841;-71
2022/08/02 05:33:23;;;;;;;2.03;1.60;;;;;;;;;;5092859;28;20448;-71
2022/08/02 05:35:50;;;;;;;1.70;1.37;;;;;;;;;;5092160;28;20468;-71
2022/08/02 05:38:17;;;;;;;1.83;1.40;;;;;;;;;;5092089;28;20746;-71
2022/08/02 05:40:45;;;;;;;1.80;1.60;;;;;;;;;;5091907;28;20540;-71
2022/08/02 05:43:12;;;;;;;1.70;1.33;;;;;;;;;;5092517;28;20954;-71
2022/08/02 05:45:41;;;;;;;1.37;1.27;;;;;;;;;;5091883;28;20442;-71
2022/08/02 05:48:09;;;;;;;2.53;2.00;;;;;;;;;;5092048;28;20448;-71
2022/08/02 05:50:39;;;;;;;1.90;1.40;;;;;;;;;;5092355;28;20448;-68
2022/08/02 05:53:10;;;;;;;1.80;1.60;;;;;;;;;;5092180;28;20811;-71
2022/08/02 05:55:41;;;;;;;2.17;1.60;;;;;;;;;;5091818;28;20487;-71
2022/08/02 05:58:13;;;;;;;1.90;1.63;;;;;;;;;;5091988;28;20433;-71
2022/08/02 06:00:42;;;;;;;1.67;1.43;;;;;;;;;;5091761;28;20440;-71
2022/08/02 06:03:16;;;;;;;2.40;1.57;;;;;;;;;;5091768;28;20539;-71
2022/08/02 06:05:50;;;;;;;1.80;1.57;;;;;;;;;;5091266;28;20425;-71
2022/08/02 06:08:18;;;;;;;1.93;1.60;;;;;;;;;;5091485;28;20780;-71
2022/08/02 06:10:46;;;;;;;2.30;2.10;;;;;;;;;;5091430;28;20531;-71
2022/08/02 06:13:15;;;;;;;2.13;1.93;;;;;;;;;;5091864;28;20483;-71
2022/08/02 06:15:43;;;;;;;2.13;1.90;;;;;;;;;;5091493;28;20448;-71
2022/08/02 06:18:10;;;;;;;2.07;1.87;;;;;;;;;;5091441;28;20440;-71
2022/08/02 06:20:37;;;;;;;5.03;1.63;;;;;;;;;;5090492;28;20444;-71
2022/08/02 06:23:05;;;;;;;3.70;1.97;;;;;;;;;;5091564;28;20445;-72
2022/08/02 06:25:34;;;;;;;3.20;1.50;;;;;;;;;;5091977;28;20455;-71
2022/08/02 06:28:02;;;;;;;3.20;1.83;;;;;;;;;;5091687;28;20433;-71
2022/08/02 06:30:29;;;;;;;2.33;2.00;;;;;;;;;;5092488;28;20850;-72
2022/08/02 06:32:58;;;;;;;2.53;2.00;;;;;;;;;;5091629;28;20850;-73
2022/08/02 06:35:26;;;;;;;2.10;1.73;;;;;;;;;;5095126;28;20803;-71
2022/08/02 06:37:57;;;;;;;2.50;1.93;;;;;;;;;;5090690;28;20786;-72
2022/08/02 06:40:27;;;;;;;2.47;1.40;;;;;;;;;;5091468;28;20528;-72
2022/08/02 06:43:01;;;;;;;3.13;1.80;;;;;;;;;;5091034;28;20445;-72
2022/08/02 06:45:28;;;;;;;1.97;1.77;;;;;;;;;;5091464;28;20436;-72
2022/08/02 06:47:55;;;;;;;3.00;2.03;;;;;;;;;;5090703;28;20857;-71
2022/08/02 06:50:24;;;;;;;5.27;2.17;;;;;;;;;;5091116;28;20448;-72
2022/08/02 06:52:51;;;;;;;3.60;2.47;;;;;;;;;;5090428;28;20480;-73
2022/08/02 06:55:18;;;;;;;3.20;2.57;;;;;;;;;;5091379;28;20441;-72
2022/08/02 06:57:45;;;;;;;3.00;2.00;;;;;;;;;;5090287;28;20448;-72
2022/08/02 07:00:13;;;;;;;2.10;1.93;;;;;;;;;;5091461;28;20433;-71
2022/08/02 07:02:40;;;;;;;2.33;2.10;;;;;;;;;;5090568;28;20531;-71
2022/08/02 07:05:08;;;;;;;1.70;1.50;;;;;;;;;;5090977;28;20898;-71
2022/08/02 07:07:36;;;;;;;2.30;2.07;;;;;;;;;;5090859;28;20793;-72
2022/08/02 07:10:04;;;;;;;2.67;2.40;;;;;;;;;;5091305;28;20449;-72
2022/08/02 07:12:33;;;;;;;3.00;1.87;;;;;;;;;;5091312;28;20480;-71
2022/08/02 07:15:01;;;;;;;1.70;1.60;;;;;;;;;;5090868;28;20445;-71
2022/08/02 07:17:28;;;;;;;3.97;2.40;;;;;;;;;;5090807;28;20433;-72
2022/08/02 07:19:55;;;;;;;3.10;2.03;;;;;;;;;;5090341;28;20924;-71
2022/08/02 07:22:23;;;;;;;2.77;2.50;;;;;;;;;;5091436;28;20440;-72
2022/08/02 07:24:51;;;;;;;3.60;2.30;;;;;;;;;;5090689;28;20532;-73
2022/08/02 07:27:19;;;;;;;2.00;1.80;;;;;;;;;;5090638;28;20433;-73
2022/08/02 07:29:46;;;;;;;2.27;2.07;;;;;;;;;;5091557;28;20527;-72
2022/08/02 07:32:13;;;;;;;2.17;1.97;;;;;;;;;;5100863;28;20484;-73
2022/08/02 07:34:40;;;;;;;3.20;2.90;;;;;;;;;;5108236;28;20538;-72
2022/08/02 07:37:07;;;;;;;2.93;2.30;;;;;;;;;;5107871;28;20436;-70
2022/08/02 07:39:35;;;;;;;3.43;2.37;;;;;;;;;;5098641;28;20489;-71
2022/08/02 07:42:04;;;;;;;2.40;1.83;;;;;;;;;;5094962;28;20532;-72
2022/08/02 07:44:33;;;;;;;4.53;2.23;;;;;;;;;;5095630;28;20856;-71
2022/08/02 07:47:00;;;;;;;2.40;2.10;;;;;;;;;;5093644;28;20920;-72
2022/08/02 07:49:28;;;;;;;2.53;2.13;;;;;;;;;;5094586;28;20433;-72
2022/08/02 07:51:55;;;;;;;2.63;2.20;;;;;;;;;;5093928;28;20480;-71
2022/08/02 07:54:22;;;;;;;2.13;1.80;;;;;;;;;;5094312;28;20445;-73
2022/08/02 07:56:49;;;;;;;2.30;2.10;;;;;;;;;;5094182;28;20498;-72
2022/08/02 07:59:18;;;;;;;2.80;2.03;;;;;;;;;;5094275;28;20441;-72
2022/08/02 08:01:45;;;;;;;2.20;1.67;;;;;;;;;;5094064;28;20452;-72
2022/08/02 08:04:12;;;;;;;2.20;1.93;;;;;;;;;;5094335;28;20468;-72
2022/08/02 08:06:39;;;;;;;3.13;1.90;;;;;;;;;;5093501;28;20520;-72
2022/08/02 08:09:06;;;;;;;2.73;2.40;;;;;;;;;;5093968;28;20440;-71
2022/08/02 08:11:33;;;;;;;3.50;2.13;;;;;;;;;;5094418;28;20842;-72
2022/08/02 08:14:01;;;;;;;2.30;2.10;;;;;;;;;;5093767;28;20487;-72
2022/08/02 08:16:29;;;;;;;4.60;1.70;;;;;;;;;;5094128;28;20436;-72
2022/08/02 08:18:56;;;;;;;2.43;2.23;;;;;;;;;;5092988;28;20594;-72
2022/08/02 08:21:23;;;;;;;2.50;2.27;;;;;;;;;;5094109;28;20451;-72
2022/08/02 08:23:50;;;;;;;2.80;2.27;;;;;;;;;;5093539;28;20532;-72
2022/08/02 08:26:18;;;;;;;3.00;2.27;;;;;;;;;;5093863;28;20443;-72
2022/08/02 08:28:45;;;;;;;3.10;2.50;;;;;;;;;;5092690;28;20900;-72
2022/08/02 08:31:12;;;;;;;2.90;2.57;;;;;;;;;;5093945;28;20545;-72
2022/08/02 08:33:40;;;;;;;2.20;1.87;;;;;;;;;;5092938;28;20476;-72
2022/08/02 08:36:08;;;;;;;2.57;2.37;;;;;;;;;;5093671;28;20512;-71
2022/08/02 08:38:35;;;;;;;2.37;2.13;;;;;;;;;;5093537;28;20846;-72
2022/08/02 08:41:02;;;;;;;2.63;2.00;;;;;;;;;;5094089;28;20437;-72
2022/08/02 08:43:29;;;;;;;2.23;2.03;;;;;;;;;;5093074;28;20440;-72
2022/08/02 08:45:57;;;;;;;2.87;2.53;;;;;;;;;;5079901;28;20445;-72
2022/08/02 08:48:25;;;;;;;2.40;2.20;;;;;;;;;;5093298;28;20495;-71
2022/08/02 08:50:56;;;;;;;2.33;2.13;;;;;;;;;;5093146;28;20443;-72
2022/08/02 08:53:25;;;;;;;2.50;2.30;;;;;;;;;;5093279;28;20469;-72
2022/08/02 08:55:55;;;;;;;3.23;2.13;;;;;;;;;;5093186;28;20441;-72
2022/08/02 08:58:22;;;;;;;3.63;2.73;;;;;;;;;;5093068;28;20440;-72
2022/08/02 09:00:49;;;;;;;3.00;2.70;;;;;;;;;;5092794;28;20758;-72
2022/08/02 09:03:16;;;;;;;3.83;2.97;;;;;;;;;;5092872;28;20449;-72
2022/08/02 09:05:45;;;;;;;2.30;2.10;;;;;;;;;;5092337;28;20991;-71
2022/08/02 09:08:14;;;;;;;3.80;3.10;;;;;;;;;;5092775;28;20480;-72
2022/08/02 09:10:42;;;;;;;4.07;2.30;;;;;;;;;;5092349;28;20425;-71
2022/08/02 09:13:15;;;;;;;2.60;2.33;;;;;;;;;;5092843;28;20476;-72
2022/08/02 09:15:43;;;;;;;2.60;2.40;;;;;;;;;;5092490;28;20520;-72
2022/08/02 09:18:11;;;;;;;2.80;2.50;;;;;;;;;;5092464;28;20443;-72
2022/08/02 09:20:52;;;;;;;2.67;2.47;;;;;;;;;;5092188;28;20441;-72
2022/08/02 09:23:21;;;;;;;2.60;2.40;;;;;;;;;;5093096;28;20851;-72
2022/08/02 09:25:58;;;;;;;2.47;2.27;;;;;;;;;;5091760;28;20923;-72
2022/08/02 09:28:28;;;;;;;3.23;2.40;;;;;;;;;;5092569;28;20436;-72
2022/08/02 09:31:03;;;;;;;2.97;2.50;;;;;;;;;;5092173;28;20827;-72
2022/08/02 09:33:30;;;;;;;2.50;2.30;;;;;;;;;;5092810;28;20479;-72
2022/08/02 09:36:01;;;;;;;2.20;2.00;;;;;;;;;;5095445;28;20790;-72
2022/08/02 09:38:30;;;;;;;2.60;2.40;;;;;;;;;;5092200;28;20429;-72
2022/08/02 09:40:57;;;;;;;2.90;2.33;;;;;;;;;;5091704;28;20467;-72
2022/08/02 09:43:35;;;;;;;2.40;2.20;;;;;;;;;;5092566;28;20441;-72
2022/08/02 09:46:10;;;;;;;2.40;2.20;;;;;;;;;;5092692;28;20517;-72
2022/08/02 09:48:46;;;;;;;3.23;2.97;;;;;;;;;;5091588;28;20434;-71
2022/08/02 09:51:13;;;;;;;5.67;4.40;;;;;;;;;;5092250;28;20517;-73
2022/08/02 09:53:42;;;;;;;2.67;2.47;;;;;;;;;;5090595;28;20881;-72
2022/08/02 09:56:09;;;;;;;4.30;3.10;;;;;;;;;;5092358;28;20447;-72
2022/08/02 09:58:38;;;;;;;3.00;2.70;;;;;;;;;;5091419;28;20441;-69
2022/08/02 10:01:05;;;;;;;3.43;2.77;;;;;;;;;;5092331;28;20523;-72
2022/08/02 10:03:33;;;;;;;3.10;2.80;;;;;;;;;;5092127;28;20831;-72
2022/08/02 10:06:00;;;;;;;2.77;2.57;;;;;;;;;;5091208;28;20441;-72
2022/08/02 10:08:28;;;;;;;3.20;2.90;;;;;;;;;;5091569;28;20527;-72
2022/08/02 10:11:03;;;;;;;2.67;2.47;;;;;;;;;;5091418;28;20459;-72
2022/08/02 10:13:30;;;;;;;2.93;2.63;;;;;;;;;;5091844;28;20533;-72
2022/08/02 10:15:58;;;;;;;2.80;2.53;;;;;;;;;;5091474;28;20946;-72
2022/08/02 10:18:25;;;;;;;2.50;2.20;;;;;;;;;;5092603;28;20455;-72
2022/08/02 10:20:55;;;;;;;3.03;2.63;;;;;;;;;;5092675;28;20436;-73
2022/08/02 10:23:23;;;;;;;2.60;2.40;;;;;;;;;;5094815;28;20444;-73
2022/08/02 10:25:52;;;;;;;2.90;2.70;;;;;;;;;;5098105;28;20561;-73
2022/08/02 10:28:21;;;;;;;2.80;2.60;;;;;;;;;;5101115;28;20442;-73
2022/08/02 10:30:49;;;;;;;2.73;2.53;;;;;;;;;;5102489;28;20467;-73
2022/08/02 10:33:18;;;;;;;2.60;2.40;;;;;;;;;;5104434;28;20487;-73
2022/08/02 10:35:46;;;;;;;2.10;2.00;;;;;;;;;;5103476;28;20478;-72
2022/08/02 10:38:13;;;;;;;2.70;2.50;;;;;;;;;;5105209;28;20446;-73
2022/08/02 10:40:44;;;;;;;3.30;2.70;;;;;;;;;;5106904;28;20460;-73
2022/08/02 10:43:11;;;;;;;2.43;2.17;;;;;;;;;;5107937;28;20447;-72
2022/08/02 10:45:40;;;;;;;2.50;2.30;;;;;;;;;;5106782;28;20471;-72
2022/08/02 10:48:10;;;;;;;2.90;2.47;;;;;;;;;;5106870;28;20436;-71
2022/08/02 10:51:01;;;;;;;3.50;2.80;;;;;;;;;;5097255;28;20436;-72
2022/08/02 10:53:29;;;;;;;2.67;2.47;;;;;;;;;;5077849;28;20480;-72
2022/08/02 10:55:59;;;;;;;2.60;2.40;;;;;;;;;;5091884;28;20463;-73
2022/08/02 10:58:28;;;;;;;3.40;2.87;;;;;;;;;;5091829;28;20900;-73
2022/08/02 11:00:57;;;;;;;2.80;2.60;;;;;;;;;;5091365;28;20452;-72
2022/08/02 11:03:36;;;;;;;2.30;2.10;;;;;;;;;;5091063;28;20448;-72
2022/08/02 11:06:04;;;;;;;3.37;3.07;;;;;;;;;;5093834;28;20840;-72
2022/08/02 11:08:31;;;;;;;2.40;2.20;;;;;;;;;;5095203;28;20441;-72
2022/08/02 11:11:00;;;;;;;2.73;2.50;;;;;;;;;;5094405;28;20450;-72
2022/08/02 11:13:28;;;;;;;3.10;2.90;;;;;;;;;;5095377;28;20479;-72
2022/08/02 11:16:01;;;;;;;3.23;2.53;;;;;;;;;;5094635;28;20483;-72
2022/08/02 11:18:47;;;;;;;3.43;3.03;;;;;;;;;;5094998;28;20471;-72
2022/08/02 11:21:21;;;;;;;3.10;2.80;;;;;;;;;;5094966;28;20440;-73
2022/08/02 11:23:48;;;;;;;3.37;2.57;;;;;;;;;;5094329;28;20440;-73
2022/08/02 11:26:34;;;;;;;2.60;2.40;;;;;;;;;;5095217;28;20447;-73
2022/08/02 11:29:02;;;;;;;3.00;2.80;;;;;;;;;;5095598;28;20515;-74
2022/08/02 11:31:39;;;;;;;2.70;2.50;;;;;;;;;;5095266;28;20452;-74
2022/08/02 11:34:06;;;;;;;2.93;2.60;;;;;;;;;;5095253;28;20495;-71
2022/08/02 11:36:33;;;;;;;2.93;2.73;;;;;;;;;;5098694;28;20454;-73
2022/08/02 11:39:10;;;;;;;3.90;3.40;;;;;;;;;;5095422;28;20534;-73
2022/08/02 11:41:37;;;;;;;2.83;2.57;;;;;;;;;;5111321;28;20453;-72
2022/08/02 11:44:05;;;;;;;2.97;2.70;;;;;;;;;;5110601;28;20261;-73
2022/08/02 11:46:33;;;;;;;3.87;2.70;;;;;;;;;;5104149;28;20471;-72
2022/08/02 11:49:12;;;;;;;3.10;2.90;;;;;;;;;;5095307;28;20194;-72
2022/08/02 11:51:39;;;;;;;3.40;3.10;;;;;;;;;;5094744;28;20190;-72
2022/08/02 11:54:06;;;;;;;3.20;3.00;;;;;;;;;;5094535;28;20498;-72
2022/08/02 11:56:33;;;;;;;2.60;2.40;;;;;;;;;;5094291;28;20273;-72
2022/08/02 11:59:04;;;;;;;2.73;2.53;;;;;;;;;;5094087;28;20517;-72
2022/08/02 12:01:32;;;;;;;2.50;2.30;;;;;;;;;;5094657;28;20531;-72
2022/08/02 12:04:00;;;;;;;2.60;2.40;;;;;;;;;;5093703;28;20440;-73
2022/08/02 12:06:28;;;;;;;2.87;2.67;;;;;;;;;;5106125;28;20862;-72
2022/08/02 12:08:59;;;;;;;2.40;2.20;;;;;;;;;;5093905;28;20559;-72
2022/08/02 12:11:26;;;;;;;3.40;3.00;;;;;;;;;;5094080;28;20458;-72
2022/08/02 12:13:54;;;;;;;2.70;2.50;;;;;;;;;;5093852;28;20224;-73
2022/08/02 12:19:22;;;;;;;3.03;2.10;;;;;;;;;;5093928;28;20930;-72
2022/08/02 12:21:49;;;;;;;2.87;2.53;;;;;;;;;;5081378;28;20463;-73
2022/08/02 12:24:28;;;;;;;3.43;3.13;;;;;;;;;;5093747;28;20443;-72
2022/08/02 12:26:55;;;;;;;2.37;2.17;;;;;;;;;;5092742;28;20282;-72
2022/08/02 12:29:30;;;;;;;2.63;2.43;;;;;;;;;;5093576;28;20202;-72
2022/08/02 12:31:57;;;;;;;3.23;2.93;;;;;;;;;;5092976;28;20197;-72
2022/08/02 12:34:26;;;;;;;2.80;2.50;;;;;;;;;;5093376;28;20241;-71
2022/08/02 12:37:00;;;;;;;2.90;2.70;;;;;;;;;;5092550;28;20210;-72
2022/08/02 12:39:38;;;;;;;2.70;2.50;;;;;;;;;;5093350;28;20198;-73
2022/08/02 12:42:06;;;;;;;2.50;2.30;;;;;;;;;;5093356;28;20280;-73
2022/08/02 12:44:33;;;;;;;8.30;2.87;;;;;;;;;;5093418;28;20202;-73
2022/08/02 12:47:01;;;;;;;2.43;2.23;;;;;;;;;;5092270;28;20663;-72
2022/08/02 12:49:29;;;;;;;2.93;2.63;;;;;;;;;;5093273;28;20528;-72
2022/08/02 12:51:57;;;;;;;2.63;2.43;;;;;;;;;;5092880;28;20309;-72
2022/08/02 12:54:24;;;;;;;2.60;2.40;;;;;;;;;;5093174;28;20214;-72
2022/08/02 12:56:52;;;;;;;3.60;2.90;;;;;;;;;;5091958;28;20289;-72
2022/08/02 12:59:33;;;;;;;2.40;2.20;;;;;;;;;;5093394;28;20440;-72
2022/08/02 13:02:02;;;;;;;3.07;2.77;;;;;;;;;;5093200;28;20190;-72
2022/08/02 13:04:31;;;;;;;3.00;2.63;;;;;;;;;;5092841;28;20439;-72
2022/08/02 13:06:58;;;;;;;2.77;2.57;;;;;;;;;;5104166;28;20198;-72
2022/08/02 13:09:25;;;;;;;2.23;1.97;;;;;;;;;;5092585;28;20288;-72
2022/08/02 13:11:52;;;;;;;2.63;2.43;;;;;;;;;;5092043;28;20198;-72
2022/08/02 13:14:20;;;;;;;2.73;2.53;;;;;;;;;;5092987;28;20221;-72
2022/08/02 13:16:48;;;;;;;2.77;2.53;;;;;;;;;;5091957;28;20198;-72
2022/08/02 13:19:15;;;;;;;2.83;2.63;;;;;;;;;;5092518;28;20217;-72
2022/08/02 13:21:44;;;;;;;2.97;2.57;;;;;;;;;;5092186;28;20208;-72
2022/08/02 13:24:14;;;;;;;2.80;2.60;;;;;;;;;;5092527;28;20205;-72
2022/08/02 13:26:42;;;;;;;2.53;2.33;;;;;;;;;;5091842;28;20190;-72
2022/08/02 13:29:09;;;;;;;2.60;2.40;;;;;;;;;;5092188;28;20199;-72
2022/08/02 13:31:37;;;;;;;2.30;2.10;;;;;;;;;;5092098;28;20198;-71
2022/08/02 13:34:05;;;;;;;3.57;3.27;;;;;;;;;;5091969;28;20238;-72
2022/08/02 13:36:33;;;;;;;2.60;2.40;;;;;;;;;;5095685;28;20548;-73
2022/08/02 13:39:02;;;;;;;2.83;2.63;;;;;;;;;;5091459;28;20597;-70
2022/08/02 13:41:30;;;;;;;2.72;2.53;;;;;;;;;;5092485;28;20198;-72
2022/08/02 13:43:57;;;;;;;3.15;2.85;;;;;;;;;;5091516;28;20205;-70
2022/08/02 13:46:24;;;;;;;3.13;2.85;;;;;;;;;;5091632;28;20665;-71
2022/08/02 13:48:51;;;;;;;3.00;2.25;;;;;;;;;;5091792;28;20206;-71
2022/08/02 13:51:18;;;;;;;2.45;2.25;;;;;;;;;;5092528;28;20294;-70
2022/08/02 13:53:45;;;;;;;2.60;2.40;;;;;;;;;;5091506;28;20210;-71
2022/08/02 13:56:14;;;;;;;2.40;2.20;;;;;;;;;;5092095;28;20225;-71
2022/08/02 13:58:41;;;;;;;2.60;2.40;;;;;;;;;;5091183;28;20659;-70
2022/08/02 14:01:09;;;;;;;1.83;1.73;;;;;;;;;;5092006;28;20194;-70
2022/08/02 14:03:36;;;;;;;2.50;2.22;;;;;;;;;;5091733;28;20201;-68
2022/08/02 14:06:05;;;;;;;2.58;2.38;;;;;;;;;;5091963;28;20523;-70
2022/08/02 14:08:33;;;;;;;2.38;2.17;;;;;;;;;;5091569;28;20538;-71
2022/08/02 14:11:00;;;;;;;2.35;2.15;;;;;;;;;;5091114;28;20276;-70
2022/08/02 14:13:28;;;;;;;2.25;2.05;;;;;;;;;;5091591;28;20194;-70
2022/08/02 14:15:56;;;;;;;1.80;1.70;;;;;;;;;;5091305;28;20229;-70
2022/08/02 14:18:23;;;;;;;2.20;2.00;;;;;;;;;;5091377;28;20194;-71
2022/08/02 14:20:50;;;;;;;5.15;2.22;;;;;;;;;;5091356;28;20195;-71
2022/08/02 14:23:17;;;;;;;2.53;2.33;;;;;;;;;;5091872;28;20539;-72
2022/08/02 14:25:44;;;;;;;1.83;1.73;;;;;;;;;;5090612;28;20202;-71
2022/08/02 14:28:13;;;;;;;1.85;1.70;;;;;;;;;;5091061;28;20194;-71
2022/08/02 14:30:42;;;;;;;1.98;1.88;;;;;;;;;;5091018;28;20190;-71
2022/08/02 14:33:09;;;;;;;2.10;1.92;;;;;;;;;;5091410;28;20198;-71
2022/08/02 14:35:36;;;;;;;2.42;1.98;;;;;;;;;;5090588;28;20230;-68
2022/08/02 14:38:03;;;;;;;2.25;2.05;;;;;;;;;;5091466;28;20194;-72
2022/08/02 14:40:31;;;;;;;2.60;2.40;;;;;;;;;;5090733;28;20202;-70
2022/08/02 14:42:58;;;;;;;2.47;2.28;;;;;;;;;;5091020;28;20210;-71
2022/08/02 14:45:27;;;;;;;3.10;2.10;;;;;;;;;;5091191;28;20209;-71
2022/08/02 14:47:56;;;;;;;3.58;3.28;;;;;;;;;;5090512;28;20197;-70
2022/08/02 14:50:23;;;;;;;3.10;2.90;;;;;;;;;;5091395;28;20194;-72
2022/08/02 14:52:50;;;;;;;3.13;2.83;;;;;;;;;;5090833;28;20189;-71
2022/08/02 14:55:18;;;;;;;2.53;2.33;;;;;;;;;;5090819;28;20218;-71
2022/08/02 14:57:45;;;;;;;4.32;2.20;;;;;;;;;;5090287;28;20293;-71